Saint Anne, Missouri
Current Conditions -  °F | °C
As of 7:51 PM on Wednesday 17 Dec 2014 (Local Time) from KSTL Reporting Station
Broken Clouds Broken Clouds  
Wind Chill: -2°   Ceiling: 25000
Heat Index:   Visibility: 10mi
Dew Point: -4°   Wind: 6mph
Humidity: 72%   Direction: 50°NE
Pressure: 30.29"   Gusts: NA
Location:  38.7263°N, 90.3885°W
Report Text: KSTL 180151Z 05005KT 10SM SCT140 BKN250 01/M04 A3029 RMK AO2 SLP269 T00061039
Loading
Personal Weather Stations






























Interactive Weather Map New forecast layout! Learn more

10-Day Weather Forecast

Advertisements
Track Severe Weather on mobile